createdAt,value
2023-01-28T00:00:18.698Z,365
2023-01-28T00:02:17.380Z,373
2023-01-28T00:03:17.315Z,365
2023-01-28T00:04:17.669Z,370
2023-01-28T00:06:16.948Z,377
2023-01-28T00:07:17.396Z,370
2023-01-28T00:08:17.465Z,368
2023-01-28T00:09:16.718Z,365
2023-01-28T00:10:17.048Z,371
2023-01-28T00:11:17.443Z,375
2023-01-28T00:12:17.014Z,382
2023-01-28T00:13:17.424Z,372
2023-01-28T00:14:17.399Z,371
2023-01-28T00:15:17.596Z,357
2023-01-28T00:16:17.468Z,368
2023-01-28T00:17:17.418Z,367
2023-01-28T00:18:17.725Z,368
2023-01-28T00:19:17.409Z,370
2023-01-28T00:20:17.549Z,372
2023-01-28T00:21:17.219Z,358
2023-01-28T00:22:17.067Z,372
2023-01-28T00:23:17.370Z,367
2023-01-28T00:25:17.839Z,366
2023-01-28T00:26:17.310Z,369
2023-01-28T00:27:17.394Z,366
2023-01-28T00:29:17.673Z,357
2023-01-28T00:30:17.697Z,367
2023-01-28T00:31:17.205Z,366
2023-01-28T00:32:17.758Z,375
2023-01-28T00:33:17.064Z,377
2023-01-28T00:34:16.837Z,370
2023-01-28T00:35:17.607Z,372
2023-01-28T00:36:17.427Z,368
2023-01-28T00:37:17.547Z,374
2023-01-28T00:38:17.021Z,379
2023-01-28T00:40:17.504Z,370
2023-01-28T00:41:17.491Z,372
2023-01-28T00:42:17.442Z,360
2023-01-28T00:44:17.407Z,362
2023-01-28T00:45:17.766Z,372
2023-01-28T00:46:17.371Z,366
2023-01-28T00:47:16.842Z,372
2023-01-28T00:48:17.009Z,377
2023-01-28T00:49:16.903Z,372
2023-01-28T00:50:17.167Z,367
2023-01-28T00:51:17.166Z,381
2023-01-28T00:52:17.077Z,378
2023-01-28T00:53:17.331Z,368
2023-01-28T00:54:17.328Z,371
2023-01-28T00:55:17.697Z,373
2023-01-28T00:56:15.904Z,358
2023-01-28T00:57:17.156Z,351
2023-01-28T00:58:16.866Z,362
2023-01-28T00:59:16.802Z,361
2023-01-28T01:00:32.060Z,364
2023-01-28T01:01:19.921Z,371
2023-01-28T01:02:17.616Z,371
2023-01-28T01:03:17.705Z,362
2023-01-28T01:04:17.773Z,357
2023-01-28T01:05:17.371Z,357
2023-01-28T01:06:17.558Z,369
2023-01-28T01:07:17.963Z,370
2023-01-28T01:08:17.022Z,367
2023-01-28T01:09:17.113Z,371
2023-01-28T01:10:17.288Z,383
2023-01-28T01:11:17.299Z,375
2023-01-28T01:12:17.398Z,376
2023-01-28T01:13:16.827Z,370
2023-01-28T01:14:17.701Z,373
2023-01-28T01:15:17.364Z,362
2023-01-28T01:16:17.134Z,356
2023-01-28T01:17:17.159Z,359
2023-01-28T01:18:17.533Z,371
2023-01-28T01:19:17.637Z,373
2023-01-28T01:21:17.010Z,376
2023-01-28T01:23:15.023Z,371
2023-01-28T01:25:17.844Z,374
2023-01-28T01:26:17.080Z,375
2023-01-28T01:27:17.080Z,371
2023-01-28T01:28:17.089Z,377
2023-01-28T01:30:17.635Z,373
2023-01-28T01:31:17.067Z,377
2023-01-28T01:32:17.147Z,376
2023-01-28T01:33:16.822Z,375
2023-01-28T01:34:17.002Z,378
2023-01-28T01:35:17.542Z,374
2023-01-28T01:36:17.259Z,367
2023-01-28T01:37:17.131Z,368
2023-01-28T01:38:16.972Z,360
2023-01-28T01:39:16.866Z,361
2023-01-28T01:40:17.914Z,366
2023-01-28T01:41:16.854Z,366
2023-01-28T01:42:17.364Z,378
2023-01-28T01:43:17.459Z,380
2023-01-28T01:44:17.207Z,373
2023-01-28T01:45:17.455Z,375
2023-01-28T01:46:16.857Z,374
2023-01-28T01:48:17.561Z,369
2023-01-28T01:49:17.426Z,372
2023-01-28T01:50:17.671Z,363
2023-01-28T01:51:17.747Z,362
2023-01-28T01:52:17.674Z,370
2023-01-28T01:54:17.401Z,368
2023-01-28T01:55:17.501Z,365
2023-01-28T01:56:17.376Z,370
2023-01-28T01:57:17.147Z,379
2023-01-28T01:58:17.138Z,384
2023-01-28T01:59:17.222Z,386
2023-01-28T02:00:17.990Z,382
2023-01-28T02:01:17.071Z,383
2023-01-28T02:02:17.265Z,376
2023-01-28T02:03:16.879Z,372
2023-01-28T02:04:17.099Z,365
2023-01-28T02:05:17.909Z,371
2023-01-28T02:06:17.170Z,368
2023-01-28T02:07:17.116Z,360
2023-01-28T02:08:16.847Z,370
2023-01-28T02:09:16.917Z,364
2023-01-28T02:10:17.024Z,359
2023-01-28T02:11:16.963Z,372
2023-01-28T02:12:16.935Z,369
2023-01-28T02:13:17.182Z,362
2023-01-28T02:14:29.453Z,376
2023-01-28T02:15:17.482Z,365
2023-01-28T02:16:16.542Z,360
2023-01-28T02:17:17.253Z,354
2023-01-28T02:19:16.505Z,362
2023-01-28T02:20:17.717Z,371
2023-01-28T02:23:16.951Z,372
2023-01-28T02:24:17.033Z,362
2023-01-28T02:25:17.698Z,368
2023-01-28T02:26:16.797Z,365
2023-01-28T02:27:17.915Z,363
2023-01-28T02:30:17.224Z,368
2023-01-28T02:31:17.473Z,373
2023-01-28T02:32:16.857Z,368
2023-01-28T02:33:17.098Z,369
2023-01-28T02:34:16.851Z,361
2023-01-28T02:35:17.351Z,364
2023-01-28T02:36:17.123Z,373
2023-01-28T02:37:17.106Z,362
2023-01-28T02:39:17.092Z,369
2023-01-28T02:40:17.099Z,366
2023-01-28T02:41:17.364Z,362
2023-01-28T02:43:16.922Z,365
2023-01-28T02:44:16.637Z,362
2023-01-28T02:45:17.238Z,365
2023-01-28T02:46:17.293Z,372
2023-01-28T02:47:17.297Z,376
2023-01-28T02:48:17.060Z,380
2023-01-28T02:49:17.665Z,375
2023-01-28T02:50:17.308Z,364
2023-01-28T02:51:18.051Z,362
2023-01-28T02:52:17.468Z,378
2023-01-28T02:53:17.554Z,376
2023-01-28T02:55:17.591Z,375
2023-01-28T02:56:18.190Z,371
2023-01-28T02:57:16.940Z,371
2023-01-28T02:58:16.832Z,366
2023-01-28T02:59:16.870Z,367
2023-01-28T03:00:17.903Z,360
2023-01-28T03:01:17.458Z,372
2023-01-28T03:03:17.471Z,364
2023-01-28T03:04:17.086Z,372
2023-01-28T03:05:17.447Z,378
2023-01-28T03:06:17.247Z,377
2023-01-28T03:07:17.424Z,364
2023-01-28T03:08:17.749Z,369
2023-01-28T03:10:17.721Z,370
2023-01-28T03:11:17.329Z,371
2023-01-28T03:13:18.116Z,378
2023-01-28T03:14:17.507Z,368
2023-01-28T03:15:17.845Z,369
2023-01-28T03:16:17.569Z,376
2023-01-28T03:17:17.485Z,378
2023-01-28T03:18:17.678Z,370
2023-01-28T03:19:17.508Z,368
2023-01-28T03:21:17.983Z,363
2023-01-28T03:22:17.676Z,374
2023-01-28T03:24:17.553Z,368
2023-01-28T03:26:17.635Z,375
2023-01-28T03:27:17.271Z,375
2023-01-28T03:28:18.090Z,378
2023-01-28T03:29:18.025Z,372
2023-01-28T03:31:17.450Z,368
2023-01-28T03:32:17.845Z,374
2023-01-28T03:33:17.799Z,382
2023-01-28T03:35:17.870Z,377
2023-01-28T03:36:18.237Z,361
2023-01-28T03:37:17.478Z,361
2023-01-28T03:38:17.445Z,369
2023-01-28T03:39:17.629Z,365
2023-01-28T03:40:18.000Z,375
2023-01-28T03:42:18.204Z,365
2023-01-28T03:43:17.863Z,362
2023-01-28T03:44:17.789Z,367
2023-01-28T03:46:17.089Z,368
2023-01-28T03:48:17.671Z,376
2023-01-28T03:51:17.446Z,370
2023-01-28T03:53:17.479Z,368
2023-01-28T03:56:17.381Z,379
2023-01-28T03:57:17.728Z,375
2023-01-28T03:58:17.207Z,375
2023-01-28T04:00:18.525Z,369
2023-01-28T04:01:17.198Z,369
2023-01-28T04:03:17.317Z,370
2023-01-28T04:04:17.243Z,379
2023-01-28T04:05:17.571Z,383
2023-01-28T04:06:17.463Z,368
2023-01-28T04:07:17.546Z,359
2023-01-28T04:08:18.019Z,356
2023-01-28T04:09:17.865Z,367
2023-01-28T04:10:18.401Z,377
2023-01-28T04:11:17.852Z,377
2023-01-28T04:12:17.825Z,370
2023-01-28T04:14:18.409Z,369
2023-01-28T04:15:17.957Z,361
2023-01-28T04:16:17.994Z,360
2023-01-28T04:17:18.383Z,362
2023-01-28T04:18:17.974Z,369
2023-01-28T04:19:17.585Z,373
2023-01-28T04:21:18.126Z,368
2023-01-28T04:22:18.109Z,367
2023-01-28T04:24:18.206Z,370
2023-01-28T04:25:18.008Z,377
2023-01-28T04:26:17.492Z,391
2023-01-28T04:28:17.527Z,371
2023-01-28T04:29:17.955Z,363
2023-01-28T04:30:17.635Z,363
2023-01-28T04:31:17.545Z,371
2023-01-28T04:32:17.413Z,375
2023-01-28T04:33:17.718Z,360
2023-01-28T04:34:16.915Z,355
2023-01-28T04:35:17.715Z,361
2023-01-28T04:36:17.011Z,366
2023-01-28T04:37:16.996Z,362
2023-01-28T04:38:17.317Z,352
2023-01-28T04:39:17.670Z,365
2023-01-28T04:40:17.303Z,380
2023-01-28T04:41:17.495Z,371
2023-01-28T04:42:17.818Z,373
2023-01-28T04:43:17.466Z,375
2023-01-28T04:44:17.595Z,374
2023-01-28T04:46:17.312Z,378
2023-01-28T04:47:16.983Z,377
2023-01-28T04:48:17.299Z,371
2023-01-28T04:49:17.381Z,359
2023-01-28T04:50:18.060Z,370
2023-01-28T04:51:17.616Z,370
2023-01-28T04:53:16.993Z,377
2023-01-28T04:54:17.331Z,380
2023-01-28T04:55:17.912Z,367
2023-01-28T04:56:17.145Z,367
2023-01-28T04:57:17.516Z,359
2023-01-28T04:58:17.624Z,368
2023-01-28T04:59:17.145Z,374
2023-01-28T05:00:18.362Z,358
2023-01-28T05:01:16.990Z,364
2023-01-28T05:02:17.373Z,363
2023-01-28T05:03:17.259Z,366
2023-01-28T05:04:18.004Z,367
2023-01-28T05:05:18.021Z,367
2023-01-28T05:06:17.809Z,360
2023-01-28T05:07:17.504Z,367
2023-01-28T05:08:17.851Z,363
2023-01-28T05:09:17.713Z,369
2023-01-28T05:10:17.086Z,370
2023-01-28T05:11:17.877Z,382
2023-01-28T05:12:17.250Z,374
2023-01-28T05:13:17.479Z,365
2023-01-28T05:14:17.585Z,372
2023-01-28T05:15:17.956Z,369
2023-01-28T05:16:18.255Z,362
2023-01-28T05:18:17.221Z,367
2023-01-28T05:19:17.458Z,371
2023-01-28T05:20:17.811Z,369
2023-01-28T05:22:17.314Z,367
2023-01-28T05:23:17.559Z,370
2023-01-28T05:24:17.888Z,375
2023-01-28T05:25:17.822Z,368
2023-01-28T05:26:17.285Z,373
2023-01-28T05:27:17.446Z,371
2023-01-28T05:28:17.308Z,371
2023-01-28T05:30:22.807Z,378
2023-01-28T05:31:17.369Z,373
2023-01-28T05:32:17.813Z,372
2023-01-28T05:33:17.191Z,370
2023-01-28T05:34:17.409Z,366
2023-01-28T05:35:18.724Z,365
2023-01-28T05:36:17.672Z,374
2023-01-28T05:37:17.763Z,376
2023-01-28T05:38:17.362Z,376
2023-01-28T05:39:17.830Z,373
2023-01-28T05:40:17.934Z,367
2023-01-28T05:41:17.372Z,377
2023-01-28T05:43:17.425Z,374
2023-01-28T05:44:17.320Z,371
2023-01-28T05:46:17.999Z,365
2023-01-28T05:47:17.386Z,367
2023-01-28T05:48:18.141Z,386
2023-01-28T05:49:17.500Z,386
2023-01-28T05:50:18.198Z,366
2023-01-28T05:51:17.777Z,366
2023-01-28T05:53:17.412Z,374
2023-01-28T05:54:17.685Z,370
2023-01-28T05:55:19.724Z,366
2023-01-28T05:56:17.162Z,372
2023-01-28T05:57:17.515Z,374
2023-01-28T05:58:17.385Z,381
2023-01-28T06:00:32.325Z,379
2023-01-28T06:01:17.767Z,372
2023-01-28T06:02:17.618Z,374
2023-01-28T06:03:17.424Z,369
2023-01-28T06:04:17.933Z,363
2023-01-28T06:05:17.545Z,369
2023-01-28T06:06:17.372Z,372
2023-01-28T06:07:17.888Z,376
2023-01-28T06:08:17.357Z,370
2023-01-28T06:09:17.174Z,373
2023-01-28T06:10:17.755Z,379
2023-01-28T06:11:19.015Z,366
2023-01-28T06:14:17.465Z,367
2023-01-28T06:16:17.297Z,369
2023-01-28T06:18:17.221Z,371
2023-01-28T06:19:17.847Z,373
2023-01-28T06:20:17.966Z,380
2023-01-28T06:21:17.569Z,380
2023-01-28T06:22:17.222Z,378
2023-01-28T06:23:17.693Z,385
2023-01-28T06:24:17.296Z,375
2023-01-28T06:25:18.322Z,380
2023-01-28T06:29:17.497Z,364
2023-01-28T06:30:17.882Z,371
2023-01-28T06:32:18.079Z,377
2023-01-28T06:33:17.602Z,386
2023-01-28T06:34:17.557Z,394
2023-01-28T06:35:17.692Z,382
2023-01-28T06:36:17.212Z,375
2023-01-28T06:38:17.283Z,374
2023-01-28T06:39:17.314Z,380
2023-01-28T06:40:17.905Z,379
2023-01-28T06:41:17.094Z,377
2023-01-28T06:43:17.158Z,384
2023-01-28T06:45:18.021Z,376
2023-01-28T06:46:17.202Z,375
2023-01-28T06:47:17.720Z,379
2023-01-28T06:48:17.269Z,379
2023-01-28T06:49:17.783Z,380
2023-01-28T06:50:17.842Z,381
2023-01-28T06:51:17.740Z,383
2023-01-28T06:52:17.508Z,387
2023-01-28T06:54:17.502Z,378
2023-01-28T06:55:18.061Z,372
2023-01-28T06:57:17.675Z,374
2023-01-28T06:58:16.865Z,364
2023-01-28T07:00:18.761Z,365
2023-01-28T07:02:17.746Z,376
2023-01-28T07:03:17.260Z,376
2023-01-28T07:05:17.351Z,384
2023-01-28T07:06:18.272Z,375
2023-01-28T07:07:17.212Z,375
2023-01-28T07:08:17.904Z,378
2023-01-28T07:09:17.405Z,378
2023-01-28T07:10:18.295Z,372
2023-01-28T07:11:17.777Z,363
2023-01-28T07:12:17.847Z,373
2023-01-28T07:15:18.168Z,369
2023-01-28T07:17:17.617Z,357
2023-01-28T07:18:17.111Z,366
2023-01-28T07:19:17.840Z,385
2023-01-28T07:22:17.206Z,379
2023-01-28T07:24:17.454Z,384
2023-01-28T07:25:17.421Z,385
2023-01-28T07:26:17.202Z,375
2023-01-28T07:28:17.725Z,374
2023-01-28T07:29:17.497Z,380
2023-01-28T07:31:17.370Z,367
2023-01-28T07:32:16.889Z,371
2023-01-28T07:33:17.521Z,369
2023-01-28T07:34:17.355Z,369
2023-01-28T07:35:17.857Z,368
2023-01-28T07:36:17.788Z,380
2023-01-28T07:37:17.383Z,376
2023-01-28T07:40:17.889Z,365
2023-01-28T07:42:17.597Z,367
2023-01-28T07:43:17.651Z,382
2023-01-28T07:44:17.773Z,386
2023-01-28T07:46:17.922Z,371
2023-01-28T07:47:18.031Z,372
2023-01-28T07:49:17.502Z,376
2023-01-28T07:50:17.942Z,377
2023-01-28T07:52:17.522Z,375
2023-01-28T07:53:17.256Z,370
2023-01-28T07:55:18.000Z,377
2023-01-28T07:56:17.826Z,370
2023-01-28T07:57:17.417Z,374
2023-01-28T07:59:18.088Z,376
2023-01-28T08:00:19.457Z,371
2023-01-28T08:01:17.810Z,368
2023-01-28T08:06:17.690Z,377
2023-01-28T08:07:18.216Z,370
2023-01-28T08:10:18.208Z,363
2023-01-28T08:11:17.808Z,376
2023-01-28T08:13:17.428Z,378
2023-01-28T08:15:17.475Z,385
2023-01-28T08:16:17.581Z,380
2023-01-28T08:17:17.622Z,387
2023-01-28T08:18:17.278Z,381
2023-01-28T08:21:17.655Z,373
2023-01-28T08:22:17.367Z,377
2023-01-28T08:24:17.665Z,380
2023-01-28T08:25:17.350Z,386
2023-01-28T08:26:17.337Z,377
2023-01-28T08:27:17.327Z,366
2023-01-28T08:28:17.436Z,372
2023-01-28T08:29:16.917Z,374
2023-01-28T08:30:17.789Z,370
2023-01-28T08:32:17.418Z,366
2023-01-28T08:33:17.194Z,376
2023-01-28T08:34:17.827Z,374
2023-01-28T08:35:17.655Z,372
2023-01-28T08:36:17.767Z,369
2023-01-28T08:37:17.304Z,379
2023-01-28T08:38:18.066Z,375
2023-01-28T08:39:17.469Z,381
2023-01-28T08:40:17.768Z,374
2023-01-28T08:41:17.437Z,378
2023-01-28T08:42:17.982Z,380
2023-01-28T08:43:17.756Z,384
2023-01-28T08:44:17.032Z,384
2023-01-28T08:46:17.508Z,380
2023-01-28T08:47:17.444Z,378
2023-01-28T08:48:16.869Z,385
2023-01-28T08:49:17.743Z,380
2023-01-28T08:50:17.476Z,375
2023-01-28T08:52:17.586Z,370
2023-01-28T08:53:17.209Z,377
2023-01-28T08:54:17.196Z,378
2023-01-28T08:56:18.019Z,371
2023-01-28T08:57:17.664Z,372
2023-01-28T08:58:17.255Z,373
2023-01-28T08:59:18.104Z,369
2023-01-28T09:02:30.660Z,363
2023-01-28T09:03:17.638Z,373
2023-01-28T09:04:17.268Z,365
2023-01-28T09:05:18.196Z,360
2023-01-28T09:06:17.389Z,360
2023-01-28T09:07:18.342Z,364
2023-01-28T09:08:17.241Z,364
2023-01-28T09:10:18.270Z,372
2023-01-28T09:11:17.441Z,370
2023-01-28T09:12:17.343Z,373
2023-01-28T09:13:17.368Z,376
2023-01-28T09:14:17.075Z,370
2023-01-28T09:16:17.773Z,365
2023-01-28T09:18:17.244Z,377
2023-01-28T09:19:17.470Z,381
2023-01-28T09:20:17.558Z,381
2023-01-28T09:21:17.402Z,378
2023-01-28T09:22:17.221Z,377
2023-01-28T09:24:17.284Z,379
2023-01-28T09:25:17.451Z,372
2023-01-28T09:26:17.321Z,369
2023-01-28T09:27:17.241Z,368
2023-01-28T09:29:17.416Z,357
2023-01-28T09:31:18.152Z,377
2023-01-28T09:32:17.783Z,371
2023-01-28T09:33:18.168Z,378
2023-01-28T09:35:17.964Z,382
2023-01-28T09:36:18.097Z,378
2023-01-28T09:37:18.723Z,388
2023-01-28T09:39:19.231Z,373
2023-01-28T09:40:19.266Z,379
2023-01-28T09:42:17.987Z,373
2023-01-28T09:43:19.058Z,385
2023-01-28T09:44:18.207Z,385
2023-01-28T09:46:18.620Z,387
2023-01-28T09:47:18.841Z,386
2023-01-28T09:50:19.080Z,370
2023-01-28T09:51:19.063Z,378
2023-01-28T09:53:18.807Z,383
2023-01-28T09:54:19.522Z,380
2023-01-28T09:55:19.209Z,376
2023-01-28T09:57:18.537Z,376
2023-01-28T09:58:19.036Z,367
2023-01-28T09:59:17.844Z,367
2023-01-28T10:01:18.076Z,373
2023-01-28T10:02:18.174Z,369
2023-01-28T10:04:18.143Z,382
2023-01-28T10:05:17.958Z,377
2023-01-28T10:06:18.090Z,381
2023-01-28T10:08:18.122Z,377
2023-01-28T10:09:17.888Z,377
2023-01-28T10:11:18.421Z,373
2023-01-28T10:12:17.617Z,383
2023-01-28T10:13:19.274Z,381
2023-01-28T10:14:18.117Z,380
2023-01-28T10:15:18.097Z,380
2023-01-28T10:16:17.615Z,377
2023-01-28T10:17:17.682Z,365
2023-01-28T10:18:18.493Z,372
2023-01-28T10:19:17.861Z,376
2023-01-28T10:20:17.859Z,382
2023-01-28T10:21:18.149Z,383
2023-01-28T10:23:17.583Z,376
2023-01-28T10:24:17.942Z,375
2023-01-28T10:26:17.144Z,376
2023-01-28T10:27:17.937Z,399
2023-01-28T10:29:17.706Z,400
2023-01-28T10:30:17.933Z,384
2023-01-28T10:31:18.350Z,397
2023-01-28T10:32:17.346Z,397
2023-01-28T10:35:18.297Z,398
2023-01-28T10:38:18.057Z,393
2023-01-28T10:41:18.086Z,392
2023-01-28T10:42:18.311Z,395
2023-01-28T10:44:17.574Z,384
2023-01-28T10:45:18.295Z,386
2023-01-28T10:46:17.797Z,386
2023-01-28T10:47:17.939Z,382
2023-01-28T10:48:18.059Z,380
2023-01-28T10:49:18.072Z,387
2023-01-28T10:50:18.700Z,389
2023-01-28T10:51:18.072Z,389
2023-01-28T10:52:18.016Z,376
2023-01-28T10:53:18.397Z,374
2023-01-28T10:55:18.501Z,379
2023-01-28T10:56:17.662Z,373
2023-01-28T10:58:18.042Z,378
2023-01-28T10:59:18.111Z,381
2023-01-28T11:00:19.435Z,383
2023-01-28T11:02:17.955Z,388
2023-01-28T11:03:17.958Z,379
2023-01-28T11:05:17.642Z,375
2023-01-28T11:06:17.624Z,373
2023-01-28T11:07:17.667Z,372
2023-01-28T11:09:17.679Z,374
2023-01-28T11:10:17.796Z,382
2023-01-28T11:16:18.234Z,379
2023-01-28T11:17:18.154Z,379
2023-01-28T11:19:17.883Z,378
2023-01-28T11:20:17.894Z,375
2023-01-28T11:21:18.089Z,378
2023-01-28T11:22:17.454Z,378
2023-01-28T11:23:17.897Z,371
2023-01-28T11:24:18.298Z,376
2023-01-28T11:25:18.135Z,383
2023-01-28T11:27:17.889Z,374
2023-01-28T11:28:17.683Z,379
2023-01-28T11:31:18.260Z,369
2023-01-28T11:32:18.136Z,381
2023-01-28T11:33:18.093Z,368
2023-01-28T11:34:18.051Z,372
2023-01-28T11:36:17.643Z,374
2023-01-28T11:37:18.072Z,376
2023-01-28T11:38:17.493Z,378
2023-01-28T11:39:17.827Z,369
2023-01-28T11:40:20.614Z,370
2023-01-28T11:41:17.547Z,364
2023-01-28T11:43:17.823Z,377
2023-01-28T11:44:17.930Z,388
2023-01-28T11:46:18.020Z,374
2023-01-28T11:47:18.432Z,380
2023-01-28T11:48:18.004Z,385
2023-01-28T11:50:18.510Z,392
2023-01-28T11:51:17.890Z,382
2023-01-28T11:53:18.073Z,363
2023-01-28T11:54:18.082Z,375
2023-01-28T11:55:18.191Z,389
2023-01-28T11:57:17.918Z,382
2023-01-28T11:58:17.984Z,372
2023-01-28T11:59:18.107Z,379
2023-01-28T12:01:18.085Z,377
2023-01-28T12:02:17.885Z,385
2023-01-28T12:03:18.029Z,389
2023-01-28T12:04:17.724Z,392
2023-01-28T12:05:18.140Z,387
2023-01-28T12:06:17.964Z,390
2023-01-28T12:07:18.058Z,383
2023-01-28T12:09:18.194Z,381
2023-01-28T12:11:18.065Z,373
2023-01-28T12:13:18.149Z,384
2023-01-28T12:14:19.088Z,388
2023-01-28T12:16:18.823Z,383
2023-01-28T12:17:18.118Z,383
2023-01-28T12:18:17.744Z,391
2023-01-28T12:19:18.604Z,392
2023-01-28T12:22:17.875Z,388
2023-01-28T12:23:18.142Z,387
2023-01-28T12:24:17.730Z,393
2023-01-28T12:25:18.239Z,374
2023-01-28T12:26:17.418Z,374
2023-01-28T12:27:17.699Z,387
2023-01-28T12:28:18.448Z,387
2023-01-28T12:29:18.764Z,377
2023-01-28T12:31:18.269Z,369
2023-01-28T12:32:18.683Z,374
2023-01-28T12:33:19.000Z,366
2023-01-28T12:36:18.269Z,378
2023-01-28T12:38:18.331Z,380
2023-01-28T12:39:18.201Z,382
2023-01-28T12:41:17.761Z,383
2023-01-28T12:43:18.642Z,385
2023-01-28T12:44:18.237Z,375
2023-01-28T12:46:18.724Z,383
2023-01-28T12:47:18.556Z,387
2023-01-28T12:51:18.257Z,384
2023-01-28T12:53:18.432Z,373
2023-01-28T12:54:18.303Z,373
2023-01-28T12:55:18.544Z,380
2023-01-28T12:59:18.351Z,380
2023-01-28T13:00:19.104Z,377
2023-01-28T13:01:18.411Z,380
2023-01-28T13:02:19.299Z,384
2023-01-28T13:04:18.770Z,399
2023-01-28T13:05:32.983Z,398
2023-01-28T13:07:18.473Z,389
2023-01-28T13:08:18.693Z,386
2023-01-28T13:09:18.897Z,384
2023-01-28T13:10:18.509Z,384
2023-01-28T13:11:18.291Z,394
2023-01-28T13:12:18.628Z,393
2023-01-28T13:13:18.584Z,395
2023-01-28T13:15:18.810Z,385
2023-01-28T13:16:21.304Z,391
2023-01-28T13:18:18.389Z,389
2023-01-28T13:19:18.050Z,384
2023-01-28T13:20:18.104Z,375
2023-01-28T13:21:17.782Z,375
2023-01-28T13:22:18.328Z,383
2023-01-28T13:23:17.539Z,383
2023-01-28T13:24:18.161Z,380
2023-01-28T13:26:18.096Z,369
2023-01-28T13:29:39.911Z,373
2023-01-28T13:31:18.118Z,373
2023-01-28T13:32:17.667Z,372
2023-01-28T13:33:17.645Z,379
2023-01-28T13:34:18.096Z,390
2023-01-28T13:36:18.258Z,383
2023-01-28T13:38:18.322Z,370
2023-01-28T13:40:18.376Z,375
2023-01-28T13:41:18.387Z,387
2023-01-28T13:42:18.236Z,388
2023-01-28T13:45:18.854Z,374
2023-01-28T13:46:17.757Z,374
2023-01-28T13:48:18.560Z,381
2023-01-28T13:49:19.166Z,388
2023-01-28T13:50:18.114Z,379
2023-01-28T13:51:17.662Z,379
2023-01-28T13:52:17.872Z,378
2023-01-28T13:53:18.053Z,373
2023-01-28T13:54:18.201Z,370
2023-01-28T13:55:33.282Z,376
2023-01-28T13:56:18.017Z,374
2023-01-28T13:57:18.309Z,376
2023-01-28T13:58:18.421Z,377
2023-01-28T14:01:18.591Z,377
2023-01-28T14:03:17.988Z,375
2023-01-28T14:04:18.368Z,378
2023-01-28T14:05:18.981Z,385
2023-01-28T14:06:17.860Z,385
2023-01-28T14:07:18.718Z,381
2023-01-28T14:08:18.044Z,381
2023-01-28T14:09:20.060Z,369
2023-01-28T14:10:18.000Z,369
2023-01-28T14:11:17.720Z,371
2023-01-28T14:12:17.185Z,376
2023-01-28T14:13:17.748Z,374
2023-01-28T14:16:18.274Z,382
2023-01-28T14:17:18.032Z,382
2023-01-28T14:18:18.008Z,372
2023-01-28T14:20:18.803Z,371
2023-01-28T14:22:18.144Z,369
2023-01-28T14:23:17.739Z,368
2023-01-28T14:24:18.503Z,353
2023-01-28T14:26:17.964Z,366
2023-01-28T14:27:18.385Z,362
2023-01-28T14:28:17.975Z,362
2023-01-28T14:30:18.828Z,380
2023-01-28T14:31:18.299Z,373
2023-01-28T14:33:18.554Z,374
2023-01-28T14:34:18.591Z,373
2023-01-28T14:35:18.411Z,370
2023-01-28T14:37:18.253Z,374
2023-01-28T14:38:18.934Z,375
2023-01-28T14:39:19.345Z,380
2023-01-28T14:41:18.509Z,386
2023-01-28T14:42:18.439Z,386
2023-01-28T14:43:18.385Z,378
2023-01-28T14:45:19.410Z,378
2023-01-28T14:46:18.231Z,381
2023-01-28T14:48:18.871Z,372
2023-01-28T14:49:18.369Z,367
2023-01-28T14:52:18.372Z,376
2023-01-28T14:53:18.178Z,368
2023-01-28T14:54:18.561Z,376
2023-01-28T14:55:19.530Z,383
2023-01-28T14:56:18.263Z,383
2023-01-28T14:57:18.303Z,378
2023-01-28T14:59:18.043Z,382
2023-01-28T15:00:19.165Z,370
2023-01-28T15:01:19.339Z,364
2023-01-28T15:03:24.799Z,371
2023-01-28T15:04:19.410Z,360
2023-01-28T15:06:19.563Z,376
2023-01-28T15:07:18.828Z,377
2023-01-28T15:08:18.966Z,374
2023-01-28T15:09:18.997Z,375
2023-01-28T15:11:18.897Z,377
2023-01-28T15:12:24.136Z,393
2023-01-28T15:14:19.584Z,377
2023-01-28T15:15:18.990Z,372
2023-01-28T15:18:18.797Z,364
2023-01-28T15:19:18.639Z,371
2023-01-28T15:20:24.008Z,376
2023-01-28T15:21:18.106Z,376
2023-01-28T15:22:18.461Z,369
2023-01-28T15:24:19.282Z,377
2023-01-28T15:25:18.968Z,381
2023-01-28T15:26:18.113Z,381
2023-01-28T15:27:18.157Z,378
2023-01-28T15:28:31.910Z,378
2023-01-28T15:29:18.508Z,377
2023-01-28T15:30:18.758Z,384
2023-01-28T15:31:18.647Z,393
2023-01-28T15:34:18.397Z,382
2023-01-28T15:35:18.674Z,374
2023-01-28T15:36:18.410Z,374
2023-01-28T15:38:32.852Z,378
2023-01-28T15:39:18.012Z,384
2023-01-28T15:40:18.144Z,386
2023-01-28T15:41:18.517Z,380
2023-01-28T15:43:18.791Z,376
2023-01-28T15:44:18.467Z,376
2023-01-28T15:46:18.146Z,382
2023-01-28T15:47:18.553Z,379
2023-01-28T15:48:18.611Z,380
2023-01-28T15:50:18.546Z,373
2023-01-28T15:53:18.453Z,372
2023-01-28T15:54:18.730Z,374
2023-01-28T15:55:19.769Z,383
2023-01-28T15:57:18.856Z,386
2023-01-28T15:58:19.105Z,383
2023-01-28T16:02:18.318Z,380
2023-01-28T16:04:18.196Z,376
2023-01-28T16:05:18.183Z,376
2023-01-28T16:06:18.394Z,381
2023-01-28T16:08:18.158Z,382
2023-01-28T16:09:18.337Z,375
2023-01-28T16:12:18.439Z,373
2023-01-28T16:13:18.035Z,373
2023-01-28T16:14:17.756Z,374
2023-01-28T16:15:19.614Z,387
2023-01-28T16:18:18.073Z,380
2023-01-28T16:19:17.820Z,376
2023-01-28T16:21:17.963Z,387
2023-01-28T16:22:17.998Z,383
2023-01-28T16:23:18.488Z,381
2023-01-28T16:25:18.180Z,380
2023-01-28T16:26:18.417Z,391
2023-01-28T16:28:18.499Z,390
2023-01-28T16:29:18.158Z,381
2023-01-28T16:30:18.217Z,372
2023-01-28T16:32:18.848Z,387
2023-01-28T16:33:18.651Z,389
2023-01-28T16:35:18.667Z,387
2023-01-28T16:36:18.089Z,384
2023-01-28T16:38:18.252Z,391
2023-01-28T16:39:17.996Z,393
2023-01-28T16:40:19.215Z,397
2023-01-28T16:42:17.731Z,392
2023-01-28T16:43:18.455Z,381
2023-01-28T16:49:17.991Z,387
2023-01-28T16:50:18.377Z,391
2023-01-28T16:51:17.762Z,391
2023-01-28T16:52:18.313Z,390
2023-01-28T16:53:17.495Z,402
2023-01-28T16:54:18.455Z,396
2023-01-28T16:55:18.205Z,396
2023-01-28T16:56:30.657Z,392
2023-01-28T16:57:18.004Z,393
2023-01-28T16:59:17.727Z,391
2023-01-28T17:00:19.545Z,390
2023-01-28T17:02:18.225Z,393
2023-01-28T17:03:17.747Z,385
2023-01-28T17:04:18.534Z,397
2023-01-28T17:06:18.334Z,394
2023-01-28T17:07:17.956Z,396
2023-01-28T17:09:17.594Z,389
2023-01-28T17:10:18.155Z,376
2023-01-28T17:12:18.441Z,385
2023-01-28T17:14:17.545Z,397
2023-01-28T17:15:18.441Z,399
2023-01-28T17:16:18.162Z,392
2023-01-28T17:17:17.588Z,393
2023-01-28T17:19:18.707Z,397
2023-01-28T17:20:18.674Z,385
2023-01-28T17:22:18.784Z,396
2023-01-28T17:23:18.121Z,396
2023-01-28T17:25:18.708Z,393
2023-01-28T17:26:18.596Z,394
2023-01-28T17:29:18.659Z,385
2023-01-28T17:30:19.501Z,390
2023-01-28T17:31:19.552Z,393
2023-01-28T17:32:18.027Z,393
2023-01-28T17:33:18.865Z,394
2023-01-28T17:35:18.627Z,392
2023-01-28T17:36:18.676Z,385
2023-01-28T17:37:18.461Z,393
2023-01-28T17:38:19.684Z,400
2023-01-28T17:39:19.595Z,399
2023-01-28T17:40:18.677Z,399
2023-01-28T17:42:18.841Z,395
2023-01-28T17:43:18.306Z,392
2023-01-28T17:47:18.169Z,381
2023-01-28T17:49:26.178Z,383
2023-01-28T17:50:18.172Z,380
2023-01-28T17:52:18.166Z,378
2023-01-28T17:53:18.257Z,391
2023-01-28T17:54:18.121Z,398
2023-01-28T17:56:18.109Z,394
2023-01-28T17:57:18.137Z,390
2023-01-28T17:58:18.470Z,394
2023-01-28T17:59:18.167Z,388
2023-01-28T18:01:32.145Z,388
2023-01-28T18:02:18.207Z,396
2023-01-28T18:03:18.134Z,402